sensor_id;sensor_type;location;lat;lon;timestamp;P1;durP1;ratioP1;P2;durP2;ratioP2
40599;SDS011;26309;50.924;4.754;2023-11-19T00:00:16;3.38;;;2.75;;
40599;SDS011;26309;50.924;4.754;2023-11-19T00:02:42;3.75;;;2.90;;
40599;SDS011;26309;50.924;4.754;2023-11-19T00:05:08;4.47;;;3.13;;
40599;SDS011;26309;50.924;4.754;2023-11-19T00:07:36;7.10;;;2.90;;
40599;SDS011;26309;50.924;4.754;2023-11-19T00:10:07;6.45;;;2.85;;
40599;SDS011;26309;50.924;4.754;2023-11-19T00:12:40;8.25;;;3.28;;
40599;SDS011;26309;50.924;4.754;2023-11-19T00:15:07;7.47;;;3.03;;
40599;SDS011;26309;50.924;4.754;2023-11-19T00:17:40;10.07;;;3.33;;
40599;SDS011;26309;50.924;4.754;2023-11-19T00:20:13;11.88;;;3.42;;
40599;SDS011;26309;50.924;4.754;2023-11-19T00:22:40;13.48;;;3.60;;
40599;SDS011;26309;50.924;4.754;2023-11-19T00:25:09;10.90;;;3.47;;
40599;SDS011;26309;50.924;4.754;2023-11-19T00:27:36;7.90;;;3.20;;
40599;SDS011;26309;50.924;4.754;2023-11-19T00:30:03;14.70;;;3.70;;
40599;SDS011;26309;50.924;4.754;2023-11-19T00:32:31;12.77;;;4.00;;
40599;SDS011;26309;50.924;4.754;2023-11-19T00:34:58;13.40;;;4.00;;
40599;SDS011;26309;50.924;4.754;2023-11-19T00:37:23;14.55;;;3.80;;
40599;SDS011;26309;50.924;4.754;2023-11-19T00:39:49;11.05;;;3.70;;
40599;SDS011;26309;50.924;4.754;2023-11-19T00:42:17;16.85;;;3.85;;
40599;SDS011;26309;50.924;4.754;2023-11-19T00:44:43;16.90;;;4.32;;
40599;SDS011;26309;50.924;4.754;2023-11-19T00:47:09;11.73;;;3.22;;
40599;SDS011;26309;50.924;4.754;2023-11-19T00:49:34;10.15;;;3.50;;
40599;SDS011;26309;50.924;4.754;2023-11-19T00:52:00;12.10;;;3.53;;
40599;SDS011;26309;50.924;4.754;2023-11-19T00:54:27;19.85;;;4.07;;
40599;SDS011;26309;50.924;4.754;2023-11-19T00:56:53;17.30;;;4.03;;
40599;SDS011;26309;50.924;4.754;2023-11-19T00:59:20;21.17;;;4.32;;
40599;SDS011;26309;50.924;4.754;2023-11-19T01:01:46;13.00;;;3.85;;
40599;SDS011;26309;50.924;4.754;2023-11-19T01:04:16;22.38;;;4.28;;
40599;SDS011;26309;50.924;4.754;2023-11-19T01:06:42;22.17;;;4.25;;
40599;SDS011;26309;50.924;4.754;2023-11-19T01:09:08;15.35;;;3.60;;
40599;SDS011;26309;50.924;4.754;2023-11-19T01:11:34;16.40;;;3.95;;
40599;SDS011;26309;50.924;4.754;2023-11-19T01:14:00;14.52;;;3.47;;
40599;SDS011;26309;50.924;4.754;2023-11-19T01:16:27;14.98;;;3.83;;
40599;SDS011;26309;50.924;4.754;2023-11-19T01:18:53;18.17;;;3.90;;
40599;SDS011;26309;50.924;4.754;2023-11-19T01:21:19;16.55;;;3.45;;
40599;SDS011;26309;50.924;4.754;2023-11-19T01:23:47;21.77;;;4.47;;
40599;SDS011;26309;50.924;4.754;2023-11-19T01:26:13;16.00;;;3.58;;
40599;SDS011;26309;50.924;4.754;2023-11-19T01:28:39;17.85;;;4.05;;
40599;SDS011;26309;50.924;4.754;2023-11-19T01:31:08;17.48;;;3.80;;
40599;SDS011;26309;50.924;4.754;2023-11-19T01:33:35;16.35;;;3.67;;
40599;SDS011;26309;50.924;4.754;2023-11-19T01:36:01;17.42;;;3.40;;
40599;SDS011;26309;50.924;4.754;2023-11-19T01:38:29;23.23;;;3.60;;
40599;SDS011;26309;50.924;4.754;2023-11-19T01:40:56;21.02;;;3.63;;
40599;SDS011;26309;50.924;4.754;2023-11-19T01:43:35;17.02;;;3.80;;
40599;SDS011;26309;50.924;4.754;2023-11-19T01:46:02;18.35;;;3.50;;
40599;SDS011;26309;50.924;4.754;2023-11-19T01:48:29;21.23;;;4.15;;
40599;SDS011;26309;50.924;4.754;2023-11-19T01:51:00;20.33;;;3.95;;
40599;SDS011;26309;50.924;4.754;2023-11-19T01:53:27;17.98;;;3.90;;
40599;SDS011;26309;50.924;4.754;2023-11-19T01:55:54;18.48;;;4.00;;
40599;SDS011;26309;50.924;4.754;2023-11-19T01:58:20;17.58;;;3.75;;
40599;SDS011;26309;50.924;4.754;2023-11-19T02:00:47;16.35;;;4.28;;
40599;SDS011;26309;50.924;4.754;2023-11-19T02:03:13;22.15;;;4.68;;
40599;SDS011;26309;50.924;4.754;2023-11-19T02:05:39;22.50;;;4.45;;
40599;SDS011;26309;50.924;4.754;2023-11-19T02:08:06;23.90;;;4.20;;
40599;SDS011;26309;50.924;4.754;2023-11-19T02:10:32;22.23;;;4.47;;
40599;SDS011;26309;50.924;4.754;2023-11-19T02:12:58;17.40;;;4.50;;
40599;SDS011;26309;50.924;4.754;2023-11-19T02:15:24;24.15;;;4.78;;
40599;SDS011;26309;50.924;4.754;2023-11-19T02:17:50;22.13;;;4.25;;
40599;SDS011;26309;50.924;4.754;2023-11-19T02:20:17;21.75;;;3.95;;
40599;SDS011;26309;50.924;4.754;2023-11-19T02:22:45;17.85;;;4.05;;
40599;SDS011;26309;50.924;4.754;2023-11-19T02:25:15;22.02;;;4.43;;
40599;SDS011;26309;50.924;4.754;2023-11-19T02:30:13;22.30;;;4.40;;
40599;SDS011;26309;50.924;4.754;2023-11-19T02:32:40;21.73;;;4.43;;
40599;SDS011;26309;50.924;4.754;2023-11-19T02:35:07;23.00;;;4.07;;
40599;SDS011;26309;50.924;4.754;2023-11-19T02:37:33;24.05;;;4.35;;
40599;SDS011;26309;50.924;4.754;2023-11-19T02:39:59;26.08;;;4.60;;
40599;SDS011;26309;50.924;4.754;2023-11-19T02:42:28;29.02;;;5.03;;
40599;SDS011;26309;50.924;4.754;2023-11-19T02:44:54;21.60;;;4.40;;
40599;SDS011;26309;50.924;4.754;2023-11-19T02:47:20;21.70;;;4.40;;
40599;SDS011;26309;50.924;4.754;2023-11-19T02:49:46;30.67;;;4.97;;
40599;SDS011;26309;50.924;4.754;2023-11-19T02:52:15;31.77;;;5.05;;
40599;SDS011;26309;50.924;4.754;2023-11-19T02:54:42;24.33;;;4.68;;
40599;SDS011;26309;50.924;4.754;2023-11-19T02:57:08;27.23;;;4.78;;
40599;SDS011;26309;50.924;4.754;2023-11-19T02:59:37;28.45;;;4.47;;
40599;SDS011;26309;50.924;4.754;2023-11-19T03:02:07;23.30;;;5.30;;
40599;SDS011;26309;50.924;4.754;2023-11-19T03:04:36;27.48;;;4.70;;
40599;SDS011;26309;50.924;4.754;2023-11-19T03:07:06;22.73;;;3.92;;
40599;SDS011;26309;50.924;4.754;2023-11-19T03:09:32;23.45;;;4.13;;
40599;SDS011;26309;50.924;4.754;2023-11-19T03:12:00;25.58;;;4.70;;
40599;SDS011;26309;50.924;4.754;2023-11-19T03:14:29;31.02;;;4.55;;
40599;SDS011;26309;50.924;4.754;2023-11-19T03:16:56;21.52;;;4.72;;
40599;SDS011;26309;50.924;4.754;2023-11-19T03:19:21;27.05;;;4.78;;
40599;SDS011;26309;50.924;4.754;2023-11-19T03:21:47;20.60;;;4.65;;
40599;SDS011;26309;50.924;4.754;2023-11-19T03:24:14;21.02;;;4.30;;
40599;SDS011;26309;50.924;4.754;2023-11-19T03:26:40;23.08;;;5.13;;
40599;SDS011;26309;50.924;4.754;2023-11-19T03:29:07;26.25;;;4.28;;
40599;SDS011;26309;50.924;4.754;2023-11-19T03:31:33;23.92;;;4.57;;
40599;SDS011;26309;50.924;4.754;2023-11-19T03:33:59;30.83;;;4.43;;
40599;SDS011;26309;50.924;4.754;2023-11-19T03:36:25;25.55;;;4.50;;
40599;SDS011;26309;50.924;4.754;2023-11-19T03:38:57;27.08;;;4.32;;
40599;SDS011;26309;50.924;4.754;2023-11-19T03:41:23;25.60;;;4.25;;
40599;SDS011;26309;50.924;4.754;2023-11-19T03:43:49;24.88;;;4.70;;
40599;SDS011;26309;50.924;4.754;2023-11-19T03:46:24;29.60;;;5.28;;
40599;SDS011;26309;50.924;4.754;2023-11-19T03:48:49;27.27;;;5.00;;
40599;SDS011;26309;50.924;4.754;2023-11-19T03:51:16;26.13;;;4.45;;
40599;SDS011;26309;50.924;4.754;2023-11-19T03:53:43;25.50;;;4.40;;
40599;SDS011;26309;50.924;4.754;2023-11-19T03:56:11;29.85;;;4.82;;
40599;SDS011;26309;50.924;4.754;2023-11-19T03:58:38;31.65;;;4.78;;
40599;SDS011;26309;50.924;4.754;2023-11-19T04:01:11;27.35;;;4.07;;
40599;SDS011;26309;50.924;4.754;2023-11-19T04:03:40;29.10;;;4.65;;
40599;SDS011;26309;50.924;4.754;2023-11-19T04:06:06;34.85;;;4.78;;
40599;SDS011;26309;50.924;4.754;2023-11-19T04:08:32;28.58;;;5.15;;
40599;SDS011;26309;50.924;4.754;2023-11-19T04:10:59;25.80;;;4.07;;
40599;SDS011;26309;50.924;4.754;2023-11-19T04:13:26;29.08;;;4.93;;
40599;SDS011;26309;50.924;4.754;2023-11-19T04:15:51;23.38;;;3.78;;
40599;SDS011;26309;50.924;4.754;2023-11-19T04:18:17;35.00;;;4.97;;
40599;SDS011;26309;50.924;4.754;2023-11-19T04:20:43;34.08;;;5.20;;
40599;SDS011;26309;50.924;4.754;2023-11-19T04:23:09;24.45;;;4.20;;
40599;SDS011;26309;50.924;4.754;2023-11-19T04:25:35;30.67;;;4.80;;
40599;SDS011;26309;50.924;4.754;2023-11-19T04:28:01;29.83;;;4.60;;
40599;SDS011;26309;50.924;4.754;2023-11-19T04:30:27;30.85;;;4.60;;
40599;SDS011;26309;50.924;4.754;2023-11-19T04:32:53;32.83;;;5.22;;
40599;SDS011;26309;50.924;4.754;2023-11-19T04:35:19;37.42;;;5.28;;
40599;SDS011;26309;50.924;4.754;2023-11-19T04:37:46;23.33;;;4.32;;
40599;SDS011;26309;50.924;4.754;2023-11-19T04:40:12;35.95;;;4.75;;
40599;SDS011;26309;50.924;4.754;2023-11-19T04:42:38;37.40;;;5.18;;
40599;SDS011;26309;50.924;4.754;2023-11-19T04:45:07;31.17;;;5.47;;
40599;SDS011;26309;50.924;4.754;2023-11-19T04:47:36;41.97;;;5.78;;
40599;SDS011;26309;50.924;4.754;2023-11-19T04:50:02;28.67;;;4.90;;
40599;SDS011;26309;50.924;4.754;2023-11-19T04:52:28;31.95;;;4.88;;
40599;SDS011;26309;50.924;4.754;2023-11-19T04:54:54;33.80;;;4.80;;
40599;SDS011;26309;50.924;4.754;2023-11-19T04:57:20;31.10;;;5.18;;
40599;SDS011;26309;50.924;4.754;2023-11-19T04:59:46;29.50;;;4.97;;
40599;SDS011;26309;50.924;4.754;2023-11-19T05:02:12;33.00;;;5.00;;
40599;SDS011;26309;50.924;4.754;2023-11-19T05:04:42;25.85;;;4.65;;
40599;SDS011;26309;50.924;4.754;2023-11-19T05:07:12;25.35;;;5.35;;
40599;SDS011;26309;50.924;4.754;2023-11-19T05:09:37;33.13;;;5.28;;
40599;SDS011;26309;50.924;4.754;2023-11-19T05:12:03;35.67;;;6.20;;
40599;SDS011;26309;50.924;4.754;2023-11-19T05:14:29;29.52;;;5.20;;
40599;SDS011;26309;50.924;4.754;2023-11-19T05:16:55;24.80;;;4.95;;
40599;SDS011;26309;50.924;4.754;2023-11-19T05:19:21;25.40;;;4.55;;
40599;SDS011;26309;50.924;4.754;2023-11-19T05:21:46;40.33;;;5.32;;
40599;SDS011;26309;50.924;4.754;2023-11-19T05:24:12;34.58;;;5.57;;
40599;SDS011;26309;50.924;4.754;2023-11-19T05:26:38;35.08;;;5.10;;
40599;SDS011;26309;50.924;4.754;2023-11-19T05:29:04;39.95;;;6.20;;
40599;SDS011;26309;50.924;4.754;2023-11-19T05:31:30;29.17;;;4.95;;
40599;SDS011;26309;50.924;4.754;2023-11-19T05:33:55;35.35;;;5.38;;
40599;SDS011;26309;50.924;4.754;2023-11-19T05:36:21;33.97;;;5.40;;
40599;SDS011;26309;50.924;4.754;2023-11-19T05:38:47;38.17;;;5.25;;
40599;SDS011;26309;50.924;4.754;2023-11-19T05:41:13;30.50;;;5.55;;
40599;SDS011;26309;50.924;4.754;2023-11-19T05:43:39;24.13;;;4.68;;
40599;SDS011;26309;50.924;4.754;2023-11-19T05:46:06;31.83;;;5.55;;
40599;SDS011;26309;50.924;4.754;2023-11-19T05:48:32;33.75;;;5.50;;
40599;SDS011;26309;50.924;4.754;2023-11-19T05:50:58;34.30;;;6.45;;
40599;SDS011;26309;50.924;4.754;2023-11-19T05:53:25;41.05;;;5.35;;
40599;SDS011;26309;50.924;4.754;2023-11-19T05:55:51;30.23;;;5.95;;
40599;SDS011;26309;50.924;4.754;2023-11-19T05:58:24;35.33;;;5.40;;
40599;SDS011;26309;50.924;4.754;2023-11-19T06:00:51;30.67;;;4.88;;
40599;SDS011;26309;50.924;4.754;2023-11-19T06:03:17;27.02;;;5.50;;
40599;SDS011;26309;50.924;4.754;2023-11-19T06:05:47;39.35;;;5.82;;
40599;SDS011;26309;50.924;4.754;2023-11-19T06:08:13;37.85;;;5.38;;
40599;SDS011;26309;50.924;4.754;2023-11-19T06:10:43;41.30;;;6.03;;
40599;SDS011;26309;50.924;4.754;2023-11-19T06:13:11;37.17;;;5.22;;
40599;SDS011;26309;50.924;4.754;2023-11-19T06:15:41;43.15;;;5.80;;
40599;SDS011;26309;50.924;4.754;2023-11-19T06:18:08;34.40;;;5.65;;
40599;SDS011;26309;50.924;4.754;2023-11-19T06:20:35;31.80;;;5.88;;
40599;SDS011;26309;50.924;4.754;2023-11-19T06:23:01;33.80;;;5.28;;
40599;SDS011;26309;50.924;4.754;2023-11-19T06:25:26;35.15;;;6.43;;
40599;SDS011;26309;50.924;4.754;2023-11-19T06:27:52;40.33;;;5.63;;
40599;SDS011;26309;50.924;4.754;2023-11-19T06:30:20;30.08;;;5.43;;
40599;SDS011;26309;50.924;4.754;2023-11-19T06:32:45;39.72;;;5.78;;
40599;SDS011;26309;50.924;4.754;2023-11-19T06:35:12;37.05;;;5.95;;
40599;SDS011;26309;50.924;4.754;2023-11-19T06:37:39;37.88;;;6.20;;
40599;SDS011;26309;50.924;4.754;2023-11-19T06:40:06;41.30;;;6.70;;
40599;SDS011;26309;50.924;4.754;2023-11-19T06:42:34;36.38;;;6.22;;
40599;SDS011;26309;50.924;4.754;2023-11-19T06:45:01;29.90;;;5.32;;
40599;SDS011;26309;50.924;4.754;2023-11-19T06:47:28;42.88;;;6.63;;
40599;SDS011;26309;50.924;4.754;2023-11-19T06:49:54;32.13;;;5.45;;
40599;SDS011;26309;50.924;4.754;2023-11-19T06:52:20;35.55;;;5.50;;
40599;SDS011;26309;50.924;4.754;2023-11-19T06:54:46;31.05;;;5.57;;
40599;SDS011;26309;50.924;4.754;2023-11-19T06:57:12;40.05;;;5.47;;
40599;SDS011;26309;50.924;4.754;2023-11-19T06:59:38;33.05;;;5.53;;
40599;SDS011;26309;50.924;4.754;2023-11-19T07:02:04;38.58;;;6.03;;
40599;SDS011;26309;50.924;4.754;2023-11-19T07:04:31;40.88;;;5.97;;
40599;SDS011;26309;50.924;4.754;2023-11-19T07:06:58;45.60;;;6.03;;
40599;SDS011;26309;50.924;4.754;2023-11-19T07:09:27;33.72;;;5.85;;
40599;SDS011;26309;50.924;4.754;2023-11-19T07:11:53;36.67;;;5.63;;
40599;SDS011;26309;50.924;4.754;2023-11-19T07:14:19;36.72;;;5.53;;
40599;SDS011;26309;50.924;4.754;2023-11-19T07:16:44;32.40;;;5.30;;
40599;SDS011;26309;50.924;4.754;2023-11-19T07:19:11;39.50;;;5.72;;
40599;SDS011;26309;50.924;4.754;2023-11-19T07:21:39;36.03;;;5.68;;
40599;SDS011;26309;50.924;4.754;2023-11-19T07:24:12;39.83;;;5.60;;
40599;SDS011;26309;50.924;4.754;2023-11-19T07:26:45;43.47;;;6.50;;
40599;SDS011;26309;50.924;4.754;2023-11-19T07:29:12;31.40;;;5.60;;
40599;SDS011;26309;50.924;4.754;2023-11-19T07:31:38;32.45;;;4.60;;
40599;SDS011;26309;50.924;4.754;2023-11-19T07:34:04;31.67;;;5.65;;
40599;SDS011;26309;50.924;4.754;2023-11-19T07:36:31;32.92;;;5.43;;
40599;SDS011;26309;50.924;4.754;2023-11-19T07:38:58;38.63;;;5.20;;
40599;SDS011;26309;50.924;4.754;2023-11-19T07:41:24;33.15;;;5.72;;
40599;SDS011;26309;50.924;4.754;2023-11-19T07:43:51;34.15;;;5.53;;
40599;SDS011;26309;50.924;4.754;2023-11-19T07:46:17;33.30;;;5.38;;
40599;SDS011;26309;50.924;4.754;2023-11-19T07:48:46;35.90;;;5.40;;
40599;SDS011;26309;50.924;4.754;2023-11-19T07:51:15;37.65;;;5.75;;
40599;SDS011;26309;50.924;4.754;2023-11-19T07:53:41;35.30;;;5.25;;
40599;SDS011;26309;50.924;4.754;2023-11-19T07:56:07;39.90;;;6.03;;
40599;SDS011;26309;50.924;4.754;2023-11-19T07:58:33;42.47;;;6.05;;
40599;SDS011;26309;50.924;4.754;2023-11-19T08:01:00;35.40;;;5.93;;
40599;SDS011;26309;50.924;4.754;2023-11-19T08:03:27;38.47;;;5.78;;
40599;SDS011;26309;50.924;4.754;2023-11-19T08:05:55;45.08;;;5.95;;
40599;SDS011;26309;50.924;4.754;2023-11-19T08:08:24;36.17;;;5.85;;
40599;SDS011;26309;50.924;4.754;2023-11-19T08:10:51;33.97;;;5.70;;
40599;SDS011;26309;50.924;4.754;2023-11-19T08:13:21;32.95;;;5.43;;
40599;SDS011;26309;50.924;4.754;2023-11-19T08:15:54;37.72;;;6.18;;
40599;SDS011;26309;50.924;4.754;2023-11-19T08:18:20;40.05;;;5.60;;
40599;SDS011;26309;50.924;4.754;2023-11-19T08:20:46;33.03;;;5.35;;
40599;SDS011;26309;50.924;4.754;2023-11-19T08:23:17;37.35;;;5.97;;
40599;SDS011;26309;50.924;4.754;2023-11-19T08:25:43;29.75;;;5.20;;
40599;SDS011;26309;50.924;4.754;2023-11-19T08:28:09;38.33;;;6.03;;
40599;SDS011;26309;50.924;4.754;2023-11-19T08:30:35;34.30;;;6.13;;
40599;SDS011;26309;50.924;4.754;2023-11-19T08:33:01;34.13;;;5.68;;
40599;SDS011;26309;50.924;4.754;2023-11-19T08:35:31;29.90;;;5.50;;
40599;SDS011;26309;50.924;4.754;2023-11-19T08:37:57;29.38;;;5.43;;
40599;SDS011;26309;50.924;4.754;2023-11-19T08:40:24;32.40;;;4.70;;
40599;SDS011;26309;50.924;4.754;2023-11-19T08:42:51;39.45;;;6.22;;
40599;SDS011;26309;50.924;4.754;2023-11-19T08:45:17;28.60;;;4.88;;
40599;SDS011;26309;50.924;4.754;2023-11-19T08:47:43;30.45;;;5.53;;
40599;SDS011;26309;50.924;4.754;2023-11-19T08:50:10;29.83;;;5.40;;
40599;SDS011;26309;50.924;4.754;2023-11-19T08:52:39;33.58;;;6.45;;
40599;SDS011;26309;50.924;4.754;2023-11-19T08:55:05;28.25;;;4.97;;
40599;SDS011;26309;50.924;4.754;2023-11-19T08:57:31;30.75;;;5.20;;
40599;SDS011;26309;50.924;4.754;2023-11-19T08:59:58;31.10;;;5.78;;
40599;SDS011;26309;50.924;4.754;2023-11-19T09:02:24;32.63;;;5.07;;
40599;SDS011;26309;50.924;4.754;2023-11-19T09:04:50;38.58;;;4.95;;
40599;SDS011;26309;50.924;4.754;2023-11-19T09:07:16;29.05;;;5.57;;
40599;SDS011;26309;50.924;4.754;2023-11-19T09:09:42;24.55;;;5.03;;
40599;SDS011;26309;50.924;4.754;2023-11-19T09:12:07;29.20;;;5.38;;
40599;SDS011;26309;50.924;4.754;2023-11-19T09:14:36;19.77;;;4.60;;
40599;SDS011;26309;50.924;4.754;2023-11-19T09:17:02;29.08;;;5.00;;
40599;SDS011;26309;50.924;4.754;2023-11-19T09:19:28;28.27;;;5.40;;
40599;SDS011;26309;50.924;4.754;2023-11-19T09:21:54;36.70;;;5.22;;
40599;SDS011;26309;50.924;4.754;2023-11-19T09:24:20;36.17;;;5.47;;
40599;SDS011;26309;50.924;4.754;2023-11-19T09:26:54;30.95;;;4.75;;
40599;SDS011;26309;50.924;4.754;2023-11-19T09:29:21;30.55;;;5.63;;
40599;SDS011;26309;50.924;4.754;2023-11-19T09:31:47;34.30;;;5.68;;
40599;SDS011;26309;50.924;4.754;2023-11-19T09:34:13;33.28;;;5.90;;
40599;SDS011;26309;50.924;4.754;2023-11-19T09:36:38;33.13;;;5.32;;
40599;SDS011;26309;50.924;4.754;2023-11-19T09:39:09;30.95;;;4.72;;
40599;SDS011;26309;50.924;4.754;2023-11-19T09:41:35;31.00;;;4.93;;
40599;SDS011;26309;50.924;4.754;2023-11-19T09:44:01;28.08;;;5.03;;
40599;SDS011;26309;50.924;4.754;2023-11-19T09:46:27;33.67;;;5.32;;
40599;SDS011;26309;50.924;4.754;2023-11-19T09:48:55;31.05;;;4.80;;
40599;SDS011;26309;50.924;4.754;2023-11-19T09:51:23;28.30;;;5.28;;
40599;SDS011;26309;50.924;4.754;2023-11-19T09:53:49;32.35;;;4.93;;
40599;SDS011;26309;50.924;4.754;2023-11-19T09:56:14;30.55;;;7.10;;
40599;SDS011;26309;50.924;4.754;2023-11-19T09:58:42;26.85;;;4.75;;
40599;SDS011;26309;50.924;4.754;2023-11-19T10:01:08;16.35;;;3.90;;
40599;SDS011;26309;50.924;4.754;2023-11-19T10:03:38;23.60;;;4.20;;
40599;SDS011;26309;50.924;4.754;2023-11-19T10:06:09;22.92;;;4.28;;
40599;SDS011;26309;50.924;4.754;2023-11-19T10:08:38;33.05;;;4.80;;
40599;SDS011;26309;50.924;4.754;2023-11-19T10:11:06;18.73;;;4.50;;
40599;SDS011;26309;50.924;4.754;2023-11-19T10:13:34;27.00;;;4.63;;
40599;SDS011;26309;50.924;4.754;2023-11-19T10:16:09;28.38;;;5.53;;
40599;SDS011;26309;50.924;4.754;2023-11-19T10:18:38;36.03;;;6.07;;
40599;SDS011;26309;50.924;4.754;2023-11-19T10:21:12;21.77;;;4.57;;
40599;SDS011;26309;50.924;4.754;2023-11-19T10:23:51;24.33;;;5.07;;
40599;SDS011;26309;50.924;4.754;2023-11-19T10:26:19;26.65;;;4.75;;
40599;SDS011;26309;50.924;4.754;2023-11-19T10:28:46;26.80;;;4.50;;
40599;SDS011;26309;50.924;4.754;2023-11-19T10:31:16;21.63;;;4.47;;
40599;SDS011;26309;50.924;4.754;2023-11-19T10:33:43;22.17;;;5.07;;
40599;SDS011;26309;50.924;4.754;2023-11-19T10:36:10;25.80;;;5.05;;
40599;SDS011;26309;50.924;4.754;2023-11-19T10:38:40;21.42;;;4.85;;
40599;SDS011;26309;50.924;4.754;2023-11-19T10:41:06;25.75;;;4.47;;
40599;SDS011;26309;50.924;4.754;2023-11-19T10:43:44;27.13;;;5.03;;
40599;SDS011;26309;50.924;4.754;2023-11-19T10:46:11;30.10;;;4.80;;
40599;SDS011;26309;50.924;4.754;2023-11-19T10:48:38;19.35;;;4.60;;
40599;SDS011;26309;50.924;4.754;2023-11-19T10:51:05;21.98;;;4.70;;
40599;SDS011;26309;50.924;4.754;2023-11-19T10:53:38;21.85;;;5.00;;
40599;SDS011;26309;50.924;4.754;2023-11-19T10:56:05;25.73;;;4.68;;
40599;SDS011;26309;50.924;4.754;2023-11-19T10:58:35;28.42;;;4.80;;
40599;SDS011;26309;50.924;4.754;2023-11-19T11:01:07;32.60;;;5.37;;
40599;SDS011;26309;50.924;4.754;2023-11-19T11:03:39;28.67;;;5.28;;
40599;SDS011;26309;50.924;4.754;2023-11-19T11:06:06;23.52;;;4.47;;
40599;SDS011;26309;50.924;4.754;2023-11-19T11:08:34;22.33;;;4.70;;
40599;SDS011;26309;50.924;4.754;2023-11-19T11:11:02;18.60;;;4.20;;
40599;SDS011;26309;50.924;4.754;2023-11-19T11:13:30;22.50;;;4.03;;
40599;SDS011;26309;50.924;4.754;2023-11-19T11:15:57;24.17;;;4.25;;
40599;SDS011;26309;50.924;4.754;2023-11-19T11:18:24;25.25;;;4.22;;
40599;SDS011;26309;50.924;4.754;2023-11-19T11:20:55;25.35;;;4.72;;
40599;SDS011;26309;50.924;4.754;2023-11-19T11:26:42;21.83;;;4.30;;
40599;SDS011;26309;50.924;4.754;2023-11-19T11:37:46;25.13;;;4.25;;
40599;SDS011;26309;50.924;4.754;2023-11-19T11:40:15;22.73;;;4.68;;
40599;SDS011;26309;50.924;4.754;2023-11-19T11:42:43;21.75;;;4.15;;
40599;SDS011;26309;50.924;4.754;2023-11-19T11:45:10;31.55;;;5.32;;
40599;SDS011;26309;50.924;4.754;2023-11-19T11:50:07;22.40;;;4.43;;
40599;SDS011;26309;50.924;4.754;2023-11-19T11:53:20;18.73;;;4.28;;
40599;SDS011;26309;50.924;4.754;2023-11-19T11:57:53;29.50;;;4.63;;
40599;SDS011;26309;50.924;4.754;2023-11-19T12:03:01;24.23;;;4.45;;
40599;SDS011;26309;50.924;4.754;2023-11-19T12:05:28;26.60;;;4.57;;
40599;SDS011;26309;50.924;4.754;2023-11-19T12:07:55;18.65;;;4.50;;
40599;SDS011;26309;50.924;4.754;2023-11-19T12:10:45;30.90;;;5.28;;
40599;SDS011;26309;50.924;4.754;2023-11-19T12:13:23;19.42;;;4.90;;
40599;SDS011;26309;50.924;4.754;2023-11-19T12:18:27;26.77;;;5.28;;
40599;SDS011;26309;50.924;4.754;2023-11-19T12:20:57;31.02;;;5.47;;
40599;SDS011;26309;50.924;4.754;2023-11-19T12:23:30;32.25;;;5.47;;
40599;SDS011;26309;50.924;4.754;2023-11-19T12:25:57;32.17;;;4.90;;
40599;SDS011;26309;50.924;4.754;2023-11-19T12:28:25;24.23;;;4.35;;
40599;SDS011;26309;50.924;4.754;2023-11-19T12:30:53;32.17;;;4.78;;
40599;SDS011;26309;50.924;4.754;2023-11-19T12:33:32;27.48;;;4.50;;
40599;SDS011;26309;50.924;4.754;2023-11-19T12:35:58;21.48;;;4.03;;
40599;SDS011;26309;50.924;4.754;2023-11-19T12:38:25;18.98;;;3.40;;
40599;SDS011;26309;50.924;4.754;2023-11-19T12:43:35;17.88;;;2.90;;
40599;SDS011;26309;50.924;4.754;2023-11-19T12:46:03;17.02;;;3.15;;
40599;SDS011;26309;50.924;4.754;2023-11-19T12:48:41;19.20;;;3.92;;
40599;SDS011;26309;50.924;4.754;2023-11-19T12:51:07;22.25;;;3.70;;
40599;SDS011;26309;50.924;4.754;2023-11-19T12:53:46;20.77;;;3.72;;
40599;SDS011;26309;50.924;4.754;2023-11-19T12:56:14;13.38;;;3.30;;
40599;SDS011;26309;50.924;4.754;2023-11-19T12:58:40;24.15;;;4.20;;
40599;SDS011;26309;50.924;4.754;2023-11-19T13:01:08;18.92;;;4.40;;
40599;SDS011;26309;50.924;4.754;2023-11-19T13:03:37;25.42;;;4.45;;
40599;SDS011;26309;50.924;4.754;2023-11-19T13:06:06;24.88;;;4.60;;
40599;SDS011;26309;50.924;4.754;2023-11-19T13:09:06;23.02;;;4.50;;
40599;SDS011;26309;50.924;4.754;2023-11-19T13:11:34;19.33;;;3.58;;
40599;SDS011;26309;50.924;4.754;2023-11-19T13:14:03;28.65;;;4.30;;
40599;SDS011;26309;50.924;4.754;2023-11-19T13:16:29;22.52;;;4.78;;
40599;SDS011;26309;50.924;4.754;2023-11-19T13:18:56;23.25;;;4.40;;
40599;SDS011;26309;50.924;4.754;2023-11-19T13:21:23;21.70;;;4.18;;
40599;SDS011;26309;50.924;4.754;2023-11-19T13:23:50;28.27;;;4.30;;
40599;SDS011;26309;50.924;4.754;2023-11-19T13:26:16;24.38;;;4.32;;
40599;SDS011;26309;50.924;4.754;2023-11-19T13:28:41;24.92;;;4.32;;
40599;SDS011;26309;50.924;4.754;2023-11-19T13:31:07;28.10;;;4.72;;
40599;SDS011;26309;50.924;4.754;2023-11-19T13:33:33;24.73;;;4.15;;
40599;SDS011;26309;50.924;4.754;2023-11-19T13:35:59;22.42;;;4.20;;
40599;SDS011;26309;50.924;4.754;2023-11-19T13:38:33;28.45;;;4.60;;
40599;SDS011;26309;50.924;4.754;2023-11-19T13:41:03;22.92;;;3.88;;
40599;SDS011;26309;50.924;4.754;2023-11-19T13:43:29;21.75;;;4.10;;
40599;SDS011;26309;50.924;4.754;2023-11-19T13:45:56;22.88;;;4.68;;
40599;SDS011;26309;50.924;4.754;2023-11-19T13:48:23;21.95;;;4.05;;
40599;SDS011;26309;50.924;4.754;2023-11-19T13:50:49;23.40;;;4.63;;
40599;SDS011;26309;50.924;4.754;2023-11-19T13:53:16;20.73;;;4.03;;
40599;SDS011;26309;50.924;4.754;2023-11-19T13:55:42;20.52;;;3.88;;
40599;SDS011;26309;50.924;4.754;2023-11-19T13:58:08;22.38;;;3.58;;
40599;SDS011;26309;50.924;4.754;2023-11-19T14:00:35;22.35;;;4.53;;
40599;SDS011;26309;50.924;4.754;2023-11-19T14:03:01;28.92;;;4.68;;
40599;SDS011;26309;50.924;4.754;2023-11-19T14:05:27;25.58;;;4.18;;
40599;SDS011;26309;50.924;4.754;2023-11-19T14:07:53;25.15;;;3.97;;
40599;SDS011;26309;50.924;4.754;2023-11-19T14:10:21;21.30;;;5.10;;
40599;SDS011;26309;50.924;4.754;2023-11-19T14:12:47;24.63;;;4.70;;
40599;SDS011;26309;50.924;4.754;2023-11-19T14:15:14;25.55;;;4.65;;
40599;SDS011;26309;50.924;4.754;2023-11-19T14:17:42;30.48;;;4.90;;
40599;SDS011;26309;50.924;4.754;2023-11-19T14:20:08;24.92;;;4.28;;
40599;SDS011;26309;50.924;4.754;2023-11-19T14:22:42;20.77;;;4.65;;
40599;SDS011;26309;50.924;4.754;2023-11-19T14:25:09;27.63;;;4.90;;
40599;SDS011;26309;50.924;4.754;2023-11-19T14:27:40;25.77;;;4.60;;
40599;SDS011;26309;50.924;4.754;2023-11-19T14:30:07;27.85;;;5.20;;
40599;SDS011;26309;50.924;4.754;2023-11-19T14:32:36;28.20;;;5.22;;
40599;SDS011;26309;50.924;4.754;2023-11-19T14:35:03;25.67;;;4.40;;
40599;SDS011;26309;50.924;4.754;2023-11-19T14:37:29;24.20;;;4.38;;
40599;SDS011;26309;50.924;4.754;2023-11-19T14:39:58;27.95;;;5.35;;
40599;SDS011;26309;50.924;4.754;2023-11-19T14:42:25;30.75;;;4.88;;
40599;SDS011;26309;50.924;4.754;2023-11-19T14:44:51;28.75;;;4.60;;
40599;SDS011;26309;50.924;4.754;2023-11-19T14:47:18;27.27;;;5.18;;
40599;SDS011;26309;50.924;4.754;2023-11-19T14:49:44;29.02;;;4.78;;
40599;SDS011;26309;50.924;4.754;2023-11-19T14:52:10;25.25;;;5.00;;
40599;SDS011;26309;50.924;4.754;2023-11-19T14:54:37;29.10;;;4.97;;
40599;SDS011;26309;50.924;4.754;2023-11-19T14:57:06;31.17;;;5.38;;
40599;SDS011;26309;50.924;4.754;2023-11-19T14:59:35;29.40;;;4.95;;
40599;SDS011;26309;50.924;4.754;2023-11-19T15:02:01;33.75;;;5.00;;
40599;SDS011;26309;50.924;4.754;2023-11-19T15:04:28;30.95;;;4.80;;